Ula — CRA6220 — position and weather

sailwx.info

Track history (hours):
 
Tides and Currents Weather Stations Pressure Air Temp Water Temp Dewpoint Dewpoint Depression Visibility Wind Speed Wind Dir Waves Ship Positions

Ula

Last reported at 2014-Sep-24 18:31 UTC. Time now 2014-Oct-02 02:25 UTC.
Position N 38°42' W 009°10'.

Length 13 m.

Type: Sailing vessel. MMSI: 263945960.

Date/timePositionNaut miles runAvg speedWind from/ knotsBaromVisibWave heightAir tempDewpointWater temp
2014-Sep-24 18:31N 38°42' W 009°10'1 0.6
2014-Sep-24 17:33N 38°42' W 009°11'5 4.9
2014-Sep-24 16:27N 38°41' W 009°18'30 6.1
2014-Sep-24 11:32N 38°11' W 009°08'6 6.2
2014-Sep-24 10:33N 38°07' W 009°03'7 7.3
2014-Sep-24 09:33N 38°00' W 008°58'6 6.1
2014-Sep-24 08:33N 37°57' W 008°52'1 0.0
2014-Sep-23 18:09N 37°57' W 008°52'2 2.9
2014-Sep-23 17:33N 37°55' W 008°52'7 6.8
2014-Sep-23 16:33N 37°49' W 008°52'  
Track history (hours):
 
Tides and Currents Weather Stations Pressure Air Temp Water Temp Dewpoint Dewpoint Depression Visibility Wind Speed Wind Dir Waves Ship Positions

Ula

Last reported at 2014-Sep-24 18:31 UTC. Time now 2014-Oct-02 02:25 UTC.
Position N 38°42' W 009°10'.

Length 13 m.

Type: Sailing vessel. MMSI: 263945960.

Date/timePositionNaut miles runAvg speedWind from/ knotsBaromVisibWave heightAir tempDewpointWater temp
2014-Sep-24 18:31N 38°42' W 009°10'1 0.6
2014-Sep-24 17:33N 38°42' W 009°11'5 4.9
2014-Sep-24 16:27N 38°41' W 009°18'30 6.1
2014-Sep-24 11:32N 38°11' W 009°08'6 6.2
2014-Sep-24 10:33N 38°07' W 009°03'7 7.3
2014-Sep-24 09:33N 38°00' W 008°58'6 6.1
2014-Sep-24 08:33N 37°57' W 008°52'1 0.0
2014-Sep-23 18:09N 37°57' W 008°52'2 2.9
2014-Sep-23 17:33N 37°55' W 008°52'7 6.8
2014-Sep-23 16:33N 37°49' W 008°52'  

Dump ship's entire track history